Time;durP1;ratioP1;P1;durP2;ratioP2;P2;SDS_P1;SDS_P2;PMS_P1;PMS_P2;Temp;Humidity;BMP_temperature;BMP_pressure;BME280_temperature;BME280_humidity;BME280_pressure;Samples;Min_cycle;Max_cycle;Signal;HPM_P1;HPM_P2
2021/08/09 00:00:56;;;;;;;;;2.33;1.67;;;;;19.07;57.12;101247.72;5037076;28;45508;-69
2021/08/09 00:03:22;;;;;;;;;2.00;2.00;;;;;19.05;56.91;101248.84;5053426;28;46477;-69
2021/08/09 00:05:47;;;;;;;;;3.00;2.00;;;;;19.04;57.23;101256.00;5055216;28;45516;-67
2021/08/09 00:08:13;;;;;;;;;3.33;1.33;;;;;18.98;57.08;101251.31;5054579;28;45474;-66
2021/08/09 00:10:38;;;;;;;;;0.67;0.67;;;;;18.90;56.92;101260.06;5055074;28;45526;-65
2021/08/09 00:13:03;;;;;;;;;1.00;1.00;;;;;18.82;57.01;101259.97;5057367;27;46890;-66
2021/08/09 00:15:29;;;;;;;;;1.00;1.00;;;;;18.71;57.27;101260.22;5058088;28;45275;-65
2021/08/09 00:17:55;;;;;;;;;0.00;0.00;;;;;18.68;57.19;101255.22;5057883;28;45414;-65
2021/08/09 00:20:21;;;;;;;;;2.00;1.00;;;;;18.63;57.37;101259.16;5058750;28;45360;-65
2021/08/09 00:22:46;;;;;;;;;0.67;0.67;;;;;18.63;57.72;101248.53;5053891;28;45527;-61
2021/08/09 00:25:12;;;;;;;;;4.00;1.00;;;;;18.60;57.57;101243.53;5053643;28;45572;-60
2021/08/09 00:27:38;;;;;;;;;2.00;1.00;;;;;18.68;57.97;101237.44;5057848;28;45405;-61
2021/08/09 00:30:05;;;;;;;;;1.33;1.00;;;;;18.82;58.23;101240.50;5048513;28;45440;-63
2021/08/09 00:32:31;;;;;;;;;0.00;0.00;;;;;18.83;57.35;101243.00;5056301;28;46290;-61
2021/08/09 00:34:56;;;;;;;;;3.00;1.33;;;;;18.84;57.51;101234.03;5048670;28;45452;-62
2021/08/09 00:37:22;;;;;;;;;1.00;1.00;;;;;18.84;57.42;101239.38;5055844;27;45676;-59
2021/08/09 00:39:47;;;;;;;;;2.67;1.00;;;;;18.77;57.44;101238.31;5056841;28;45528;-61
2021/08/09 00:42:12;;;;;;;;;4.00;1.33;;;;;18.77;57.48;101243.63;5056445;28;52711;-62
2021/08/09 00:44:38;;;;;;;;;2.00;1.00;;;;;18.72;57.77;101252.09;5057238;28;45374;-61
2021/08/09 00:47:03;;;;;;;;;1.00;1.00;;;;;18.66;57.77;101246.56;5058872;28;45525;-60
2021/08/09 00:49:29;;;;;;;;;1.00;1.00;;;;;18.58;57.89;101250.00;5057280;28;45634;-59
2021/08/09 00:51:55;;;;;;;;;2.67;1.00;;;;;18.50;58.06;101249.91;5057207;28;45392;-61
2021/08/09 00:54:23;;;;;;;;;0.67;0.67;;;;;18.43;58.05;101247.03;5056742;28;45544;-59
2021/08/09 00:56:48;;;;;;;;;1.67;1.00;;;;;18.28;58.43;101247.56;5057049;28;45538;-61
2021/08/09 00:59:14;;;;;;;;;1.00;1.00;;;;;18.26;58.55;101244.22;5056071;27;45442;-60
2021/08/09 01:01:39;;;;;;;;;1.00;1.00;;;;;18.28;58.81;101234.28;5056606;28;45414;-61
2021/08/09 01:04:05;;;;;;;;;2.00;0.67;;;;;18.26;58.69;101233.56;5056508;28;45471;-60
2021/08/09 01:06:31;;;;;;;;;1.00;1.00;;;;;18.25;58.80;101239.91;5056947;28;45360;-59
2021/08/09 01:09:16;;;;;;;;;0.67;0.67;;;;;18.21;58.76;101235.03;5056966;28;45713;-60
2021/08/09 01:11:53;;;;;;;;;1.33;1.00;;;;;18.21;58.70;101227.06;5041148;28;47406;-62
2021/08/09 01:14:53;;;;;;;;;3.00;1.00;;;;;18.24;58.69;101224.94;5056129;28;45565;-61
2021/08/09 01:17:19;;;;;;;;;0.00;0.00;;;;;18.28;59.08;101223.63;5054486;28;45393;-60
2021/08/09 01:20:14;;;;;;;;;1.33;1.00;;;;;18.38;58.51;101233.34;5038156;28;45275;-60
2021/08/09 01:22:51;;;;;;;;;1.00;1.00;;;;;18.29;58.61;101225.31;4976486;28;46431;-60
2021/08/09 01:25:24;;;;;;;;;2.67;0.00;;;;;18.30;58.31;101226.97;4973684;28;45629;-59
2021/08/09 01:27:51;;;;;;;;;1.67;0.00;;;;;18.23;58.56;101215.28;4968070;28;45622;-60
2021/08/09 01:30:19;;;;;;;;;1.00;1.00;;;;;18.17;58.51;101209.72;4976683;28;45493;-60
2021/08/09 01:32:46;;;;;;;;;1.00;1.00;;;;;18.18;58.69;101228.19;4974401;28;45617;-59
2021/08/09 01:35:14;;;;;;;;;1.67;1.67;;;;;18.20;58.42;101222.72;4973389;28;45369;-60
2021/08/09 01:37:45;;;;;;;;;0.67;0.00;;;;;18.09;58.34;101223.78;4974534;28;45370;-59
2021/08/09 01:40:14;;;;;;;;;1.33;0.67;;;;;17.92;58.82;101228.06;4974036;28;45433;-60
2021/08/09 01:42:44;;;;;;;;;0.33;0.33;;;;;17.79;58.96;101229.25;4973748;28;47287;-61
2021/08/09 01:45:13;;;;;;;;;2.00;1.00;;;;;17.73;59.19;101223.69;4973957;28;45534;-61
2021/08/09 01:47:38;;;;;;;;;2.00;0.33;;;;;17.73;59.29;101213.06;4975623;28;45417;-61
2021/08/09 01:50:05;;;;;;;;;3.00;0.67;;;;;17.79;59.27;101217.78;4974096;28;45464;-61
2021/08/09 01:52:32;;;;;;;;;1.00;1.00;;;;;17.77;59.27;101225.06;4974481;28;45475;-59
2021/08/09 01:54:58;;;;;;;;;0.00;0.00;;;;;17.69;59.38;101230.31;4973616;28;45521;-61
2021/08/09 01:57:28;;;;;;;;;0.67;0.67;;;;;17.55;59.35;101232.44;4974369;28;45688;-60
2021/08/09 01:59:53;;;;;;;;;0.00;0.00;;;;;17.48;59.56;101239.34;5022996;28;45634;-59
2021/08/09 02:02:30;;;;;;;;;1.67;0.33;;;;;17.53;60.24;101237.09;5056618;28;45506;-60
2021/08/09 02:04:56;;;;;;;;;1.00;0.67;;;;;17.64;59.94;101228.94;5055628;28;45455;-64
2021/08/09 02:07:21;;;;;;;;;0.67;0.67;;;;;17.85;59.95;101225.19;5055413;28;45680;-61
2021/08/09 02:09:47;;;;;;;;;1.33;0.00;;;;;17.98;59.58;101223.00;5055010;28;45354;-60
2021/08/09 02:12:13;;;;;;;;;2.00;0.67;;;;;18.05;59.64;101230.41;5041184;28;47596;-60
2021/08/09 02:14:49;;;;;;;;;0.67;0.67;;;;;17.98;59.11;101228.34;5038717;28;45616;-60
2021/08/09 02:17:20;;;;;;;;;0.67;0.67;;;;;17.84;59.19;101228.81;5053430;28;45420;-62
2021/08/09 02:20:01;;;;;;;;;1.33;1.33;;;;;17.75;59.46;101227.06;5058406;28;45483;-61
2021/08/09 02:22:44;;;;;;;;;1.67;0.67;;;;;17.63;59.17;101232.56;5056796;28;45488;-61
2021/08/09 02:25:23;;;;;;;;;4.00;1.67;;;;;17.51;60.18;101236.38;5058357;28;45416;-61
2021/08/09 02:28:11;;;;;;;;;0.67;0.00;;;;;17.50;59.84;101234.72;5036373;28;45400;-60
2021/08/09 02:30:43;;;;;;;;;1.67;1.00;;;;;17.44;59.84;101232.66;5048064;28;45864;-60
2021/08/09 02:33:10;;;;;;;;;3.00;0.67;;;;;17.55;59.99;101232.44;5055646;28;47216;-62
2021/08/09 02:35:36;;;;;;;;;0.67;0.67;;;;;17.48;60.19;101234.03;5055670;28;45499;-60
2021/08/09 02:38:02;;;;;;;;;2.67;0.67;;;;;17.49;60.07;101227.75;5054413;28;45379;-62
2021/08/09 02:40:27;;;;;;;;;1.67;0.00;;;;;17.37;60.26;101223.59;5053891;28;45448;-60
2021/08/09 02:42:55;;;;;;;;;4.33;1.33;;;;;17.28;59.97;101226.16;5055129;28;45551;-61
2021/08/09 02:45:20;;;;;;;;;1.67;1.00;;;;;17.21;60.63;101224.22;5055216;28;45595;-59
2021/08/09 02:47:47;;;;;;;;;1.00;1.00;;;;;17.31;60.75;101223.19;5055583;28;45542;-62
2021/08/09 02:50:14;;;;;;;;;1.00;0.00;;;;;17.25;60.59;101229.09;5054586;28;45944;-61
2021/08/09 02:52:41;;;;;;;;;1.00;1.00;;;;;17.17;61.28;101230.81;5054500;28;46148;-59
2021/08/09 02:55:09;;;;;;;;;2.00;0.00;;;;;17.16;61.09;101232.63;5034177;28;45401;-61
2021/08/09 02:57:36;;;;;;;;;1.67;1.67;;;;;17.12;61.24;101240.03;5047796;28;45478;-60
2021/08/09 03:00:02;;;;;;;;;1.00;1.00;;;;;17.13;61.61;101239.03;5056623;28;45591;-67
2021/08/09 03:02:30;;;;;;;;;2.67;1.33;;;;;17.13;61.41;101227.59;5055170;28;46728;-67
2021/08/09 03:04:57;;;;;;;;;1.00;1.00;;;;;17.08;61.37;101233.34;5055304;28;45444;-65
2021/08/09 03:07:24;;;;;;;;;2.33;2.00;;;;;17.01;61.68;101228.75;5055451;28;45578;-67
2021/08/09 03:09:50;;;;;;;;;0.33;0.33;;;;;16.96;61.65;101242.47;5056214;28;45569;-67
2021/08/09 03:12:18;;;;;;;;;0.00;0.00;;;;;16.91;61.80;101240.22;5057413;28;46266;-67
2021/08/09 03:14:50;;;;;;;;;2.33;1.00;;;;;16.84;61.86;101236.44;5055681;28;45551;-68
2021/08/09 03:17:16;;;;;;;;;2.00;1.00;;;;;16.80;62.04;101241.19;5056145;28;45243;-67
2021/08/09 03:19:41;;;;;;;;;1.33;1.00;;;;;16.78;62.55;101237.84;5055417;28;45312;-68
2021/08/09 03:22:07;;;;;;;;;1.00;1.00;;;;;16.75;62.40;101245.25;5037242;28;47013;-69
2021/08/09 03:24:32;;;;;;;;;1.00;0.00;;;;;16.70;62.59;101240.38;5055132;28;45966;-67
2021/08/09 03:26:58;;;;;;;;;1.00;1.00;;;;;16.69;62.90;101251.13;5055916;28;45483;-67
2021/08/09 03:29:25;;;;;;;;;1.00;1.00;;;;;16.65;62.83;101246.09;5055289;28;45345;-69
2021/08/09 03:31:51;;;;;;;;;1.00;1.00;;;;;16.63;62.96;101244.56;5054775;28;47166;-69
2021/08/09 03:34:17;;;;;;;;;2.00;2.00;;;;;16.58;63.35;101239.69;5055383;28;45507;-68
2021/08/09 03:36:44;;;;;;;;;0.67;0.33;;;;;16.55;63.18;101241.78;5055340;28;45916;-69
2021/08/09 03:39:09;;;;;;;;;1.00;1.00;;;;;16.53;63.46;101251.69;5055432;28;45313;-67
2021/08/09 03:41:36;;;;;;;;;2.00;1.00;;;;;16.49;63.63;101245.84;5054802;27;46059;-69
2021/08/09 03:44:01;;;;;;;;;3.33;2.00;;;;;16.48;63.90;101246.81;5054888;28;45408;-68
2021/08/09 03:46:26;;;;;;;;;1.00;1.00;;;;;16.46;64.11;101259.38;5055323;28;45591;-68
2021/08/09 03:48:52;;;;;;;;;1.00;1.00;;;;;16.46;63.76;101259.38;5055284;28;45314;-67
2021/08/09 03:51:17;;;;;;;;;3.00;1.00;;;;;16.43;63.88;101252.53;5056803;28;45539;-67
2021/08/09 03:53:42;;;;;;;;;1.33;1.00;;;;;16.43;64.46;101254.34;5040974;28;45380;-67
2021/08/09 03:56:08;;;;;;;;;2.00;2.00;;;;;16.39;64.33;101253.78;5058126;28;45463;-67
2021/08/09 03:58:33;;;;;;;;;6.33;2.00;;;;;16.39;64.09;101252.97;5059110;28;45507;-66
2021/08/09 04:00:58;;;;;;;;;3.00;1.00;;;;;16.36;64.35;101251.41;5058703;28;45920;-67
2021/08/09 04:03:24;;;;;;;;;3.33;1.67;;;;;16.35;64.63;101244.44;5058958;28;45516;-67
2021/08/09 04:05:49;;;;;;;;;3.33;2.00;;;;;16.33;64.61;101257.84;5059312;28;45537;-67
2021/08/09 04:08:14;;;;;;;;;5.00;2.00;;;;;16.31;64.02;101251.00;5059443;28;45487;-68
2021/08/09 04:10:40;;;;;;;;;3.00;2.00;;;;;16.29;64.59;101251.13;5060139;28;45990;-66
2021/08/09 04:13:05;;;;;;;;;2.00;1.00;;;;;16.28;64.50;101254.75;5059616;28;60785;-68
2021/08/09 04:15:31;;;;;;;;;3.00;2.67;;;;;16.24;64.48;101250.72;5063037;27;45358;-67
2021/08/09 04:17:56;;;;;;;;;3.00;2.00;;;;;16.21;64.82;101256.28;5064234;28;45322;-67
2021/08/09 04:20:21;;;;;;;;;3.33;2.67;;;;;16.20;64.82;101259.06;5061715;28;46303;-68
2021/08/09 04:22:46;;;;;;;;;2.00;2.00;;;;;16.20;64.83;101261.72;5063685;28;45364;-67
2021/08/09 04:25:12;;;;;;;;;2.00;2.00;;;;;16.16;64.92;101259.38;5065100;28;45356;-67
2021/08/09 04:27:37;;;;;;;;;1.00;0.00;;;;;16.14;64.99;101268.44;5061457;28;45601;-65
2021/08/09 04:30:03;;;;;;;;;2.67;1.00;;;;;16.15;64.81;101275.38;5057683;28;47046;-64
2021/08/09 04:32:38;;;;;;;;;1.00;1.00;;;;;16.11;64.80;101273.97;5058287;28;45397;-65
2021/08/09 04:35:09;;;;;;;;;6.67;2.00;;;;;16.05;64.69;101274.53;5053910;28;45366;-63
2021/08/09 04:37:35;;;;;;;;;3.00;2.33;;;;;15.95;65.12;101279.81;5058703;27;45430;-64
2021/08/09 04:40:00;;;;;;;;;2.67;2.67;;;;;15.90;64.75;101292.63;5057245;28;45512;-63
2021/08/09 04:42:26;;;;;;;;;3.00;1.67;;;;;15.83;65.19;101281.75;5060041;28;45446;-64
2021/08/09 04:44:51;;;;;;;;;2.00;2.00;;;;;15.80;65.43;101289.91;5058407;28;45502;-65
2021/08/09 04:47:17;;;;;;;;;1.67;1.67;;;;;15.77;65.27;101292.84;5057821;28;45411;-64
2021/08/09 04:49:42;;;;;;;;;3.00;3.00;;;;;15.71;65.74;101288.06;5057855;28;46252;-63
2021/08/09 04:52:08;;;;;;;;;2.00;2.00;;;;;15.66;65.67;101286.66;5057860;28;45435;-63
2021/08/09 04:54:34;;;;;;;;;1.33;1.00;;;;;15.68;65.87;101290.03;5057835;28;45322;-64
2021/08/09 04:56:59;;;;;;;;;2.33;2.00;;;;;15.68;65.76;101292.69;5047889;28;45385;-63
2021/08/09 04:59:25;;;;;;;;;1.33;1.33;;;;;15.75;66.65;101297.41;5058060;28;46244;-63
2021/08/09 05:01:50;;;;;;;;;4.67;3.00;;;;;15.79;65.46;101294.38;5055596;28;45425;-65
2021/08/09 05:04:16;;;;;;;;;2.00;2.00;;;;;15.79;65.55;101296.19;5057274;28;45513;-62
2021/08/09 05:06:41;;;;;;;;;6.00;2.00;;;;;15.79;65.59;101301.50;5057602;28;45318;-64
2021/08/09 05:09:06;;;;;;;;;3.00;3.00;;;;;15.78;65.52;101289.22;5057331;28;53179;-65
2021/08/09 05:11:32;;;;;;;;;5.67;2.00;;;;;15.83;65.86;101297.63;5065491;28;45253;-64
2021/08/09 05:13:57;;;;;;;;;2.33;2.33;;;;;15.84;65.61;101288.72;5056703;28;45840;-64
2021/08/09 05:16:22;;;;;;;;;3.33;2.00;;;;;15.83;65.84;101289.69;5057563;28;45412;-63
2021/08/09 05:18:48;;;;;;;;;2.33;2.00;;;;;15.83;66.07;101293.16;5056807;28;46994;-63
2021/08/09 05:21:16;;;;;;;;;4.00;2.00;;;;;15.85;65.82;101290.38;5057061;28;45459;-64
2021/08/09 05:23:41;;;;;;;;;2.00;2.00;;;;;15.84;65.48;101301.97;5057150;28;46026;-63
2021/08/09 05:26:06;;;;;;;;;2.00;2.00;;;;;15.83;65.87;101300.28;5056705;28;46011;-64
2021/08/09 05:28:32;;;;;;;;;3.67;1.67;;;;;15.82;66.04;101306.53;5057168;28;45366;-63
2021/08/09 05:30:58;;;;;;;;;2.33;1.33;;;;;15.87;65.58;101309.63;5057143;28;45670;-63
2021/08/09 05:33:24;;;;;;;;;1.33;1.33;;;;;15.95;65.70;101307.13;5056682;28;45491;-63
2021/08/09 05:35:49;;;;;;;;;2.00;2.00;;;;;16.01;65.74;101300.47;5057461;28;45831;-64
2021/08/09 05:38:14;;;;;;;;;4.00;2.00;;;;;16.06;65.35;101308.00;5056162;28;46210;-64
2021/08/09 05:40:40;;;;;;;;;4.00;2.00;;;;;16.10;65.63;101309.41;5038811;28;45415;-63
2021/08/09 05:43:05;;;;;;;;;2.00;2.00;;;;;16.15;65.60;101301.88;5057605;28;45475;-65
2021/08/09 05:45:31;;;;;;;;;5.00;1.67;;;;;16.17;65.24;101306.06;5056774;28;45490;-63
2021/08/09 05:47:56;;;;;;;;;5.33;2.00;;;;;16.22;65.29;101310.97;5056651;28;45314;-63
2021/08/09 05:50:22;;;;;;;;;2.00;2.00;;;;;16.29;65.27;101306.78;5056876;28;45442;-63
2021/08/09 05:52:47;;;;;;;;;2.00;1.00;;;;;16.39;65.42;101312.13;5055999;28;45393;-62
2021/08/09 05:55:12;;;;;;;;;3.67;2.33;;;;;16.46;64.89;101304.44;5057907;27;45489;-63
2021/08/09 05:57:38;;;;;;;;;4.67;4.00;;;;;16.53;64.83;101305.56;5056790;28;45350;-64
2021/08/09 06:00:05;;;;;;;;;2.67;2.67;;;;;16.57;64.79;101314.94;5057401;28;45416;-65
2021/08/09 06:02:30;;;;;;;;;2.00;2.00;;;;;16.61;64.82;101324.28;5057132;28;45544;-64
2021/08/09 06:04:56;;;;;;;;;5.00;2.00;;;;;16.59;64.57;101314.78;5037702;28;45368;-63
2021/08/09 06:07:21;;;;;;;;;1.67;1.67;;;;;16.61;64.77;101307.53;5056587;28;46314;-64
2021/08/09 06:09:46;;;;;;;;;5.00;2.67;;;;;16.62;64.63;101310.03;5056775;28;45372;-66
2021/08/09 06:12:13;;;;;;;;;1.33;1.33;;;;;16.63;64.85;101316.16;5059265;28;45340;-64
2021/08/09 06:14:39;;;;;;;;;2.67;1.67;;;;;16.62;64.57;101320.66;5040178;28;45463;-63
2021/08/09 06:17:06;;;;;;;;;2.67;2.67;;;;;16.69;64.65;101320.91;5055226;28;47080;-65
2021/08/09 06:19:33;;;;;;;;;2.33;2.00;;;;;16.75;64.55;101324.81;5056739;28;45440;-64
2021/08/09 06:21:59;;;;;;;;;2.00;1.67;;;;;16.83;64.36;101317.84;5056991;28;45725;-63
2021/08/09 06:24:24;;;;;;;;;2.00;2.00;;;;;16.93;64.25;101325.00;5056697;28;45321;-63
2021/08/09 06:26:50;;;;;;;;;1.67;1.67;;;;;16.96;64.57;101330.03;5055947;28;45877;-63
2021/08/09 06:29:16;;;;;;;;;3.33;2.00;;;;;17.03;63.96;101332.94;5037327;28;45515;-64
2021/08/09 06:31:41;;;;;;;;;3.67;2.00;;;;;17.05;63.92;101336.31;5057646;28;45455;-64
2021/08/09 06:34:06;;;;;;;;;3.67;2.00;;;;;17.12;63.94;101340.06;5056118;28;45431;-64
2021/08/09 06:36:32;;;;;;;;;1.67;1.67;;;;;17.18;63.89;101339.50;5056137;28;45424;-64
2021/08/09 06:38:57;;;;;;;;;2.33;1.67;;;;;17.24;63.70;101340.75;5056489;28;46062;-64
2021/08/09 06:41:24;;;;;;;;;1.00;0.67;;;;;17.29;63.53;101339.34;5056637;28;47487;-63
2021/08/09 06:43:50;;;;;;;;;3.67;1.67;;;;;17.39;63.55;101335.81;5055411;28;45463;-65
2021/08/09 06:46:16;;;;;;;;;1.67;1.67;;;;;17.34;63.42;101346.88;5055607;28;45569;-64
2021/08/09 06:48:41;;;;;;;;;3.33;1.67;;;;;17.37;63.36;101349.25;5056168;28;45576;-63
2021/08/09 06:51:07;;;;;;;;;3.33;2.00;;;;;17.38;63.44;101347.44;5056269;28;45304;-63
2021/08/09 06:53:33;;;;;;;;;3.00;2.67;;;;;17.36;63.78;101349.38;5057561;28;45539;-64
2021/08/09 06:55:58;;;;;;;;;2.67;2.00;;;;;17.32;63.82;101349.66;5056546;28;46331;-65
2021/08/09 06:58:23;;;;;;;;;4.33;2.00;;;;;17.34;63.80;101356.66;5055952;28;45360;-64
2021/08/09 07:00:48;;;;;;;;;2.67;1.33;;;;;17.36;63.51;101360.00;5051171;28;45386;-63
2021/08/09 07:03:16;;;;;;;;;1.00;1.00;;;;;17.45;63.93;101362.63;5055782;28;45382;-67
2021/08/09 07:05:43;;;;;;;;;4.67;2.00;;;;;17.52;63.66;101349.63;5055944;28;46691;-63
2021/08/09 07:08:09;;;;;;;;;1.67;0.33;;;;;17.58;63.72;101348.19;5055001;28;45376;-64
2021/08/09 07:10:35;;;;;;;;;4.67;2.33;;;;;17.58;63.45;101353.50;5055462;28;45435;-64
2021/08/09 07:13:00;;;;;;;;;2.67;2.00;;;;;17.57;63.67;101355.34;5056326;28;45270;-64
2021/08/09 07:15:25;;;;;;;;;4.33;3.00;;;;;17.52;63.99;101360.25;5055207;28;45325;-64
2021/08/09 07:17:51;;;;;;;;;3.33;3.33;;;;;17.47;63.82;101355.34;5054913;27;45349;-64
2021/08/09 07:20:16;;;;;;;;;1.00;1.00;;;;;17.47;64.07;101351.88;5055706;28;45274;-63
2021/08/09 07:22:43;;;;;;;;;2.00;1.00;;;;;17.45;64.23;101348.53;5056446;28;45558;-65
2021/08/09 07:25:10;;;;;;;;;2.33;2.33;;;;;17.46;64.26;101352.84;5055418;28;47236;-64
2021/08/09 07:27:36;;;;;;;;;4.67;2.00;;;;;17.49;64.46;101355.22;5056224;28;45365;-64
2021/08/09 07:30:06;;;;;;;;;2.00;2.00;;;;;17.56;63.97;101355.47;5055079;28;45628;-64
2021/08/09 07:32:31;;;;;;;;;5.33;3.00;;;;;17.68;63.62;101348.16;5055633;28;45352;-64
2021/08/09 07:34:57;;;;;;;;;2.67;1.33;;;;;17.88;63.10;101360.41;5054825;28;46044;-64
2021/08/09 07:37:22;;;;;;;;;2.33;2.33;;;;;18.04;63.46;101364.28;5055562;28;46935;-63
2021/08/09 07:39:47;;;;;;;;;2.00;2.00;;;;;18.13;63.43;101352.75;5055438;28;45444;-64
2021/08/09 07:42:13;;;;;;;;;2.67;2.00;;;;;18.18;63.75;101347.00;5055580;28;45463;-63
2021/08/09 07:44:38;;;;;;;;;6.00;3.00;;;;;18.22;63.92;101349.19;5057974;28;45389;-64
2021/08/09 07:47:03;;;;;;;;;2.67;2.67;;;;;18.25;63.21;101348.94;5054861;28;45221;-63
2021/08/09 07:49:29;;;;;;;;;4.00;3.67;;;;;18.34;62.96;101356.97;5054775;28;45620;-64
2021/08/09 07:51:54;;;;;;;;;5.67;2.67;;;;;18.40;62.53;101357.22;5054058;28;45496;-63
2021/08/09 07:54:20;;;;;;;;;4.00;2.00;;;;;18.48;62.75;101362.59;5054929;28;45406;-64
2021/08/09 07:56:46;;;;;;;;;1.67;1.67;;;;;18.53;62.71;101364.00;5054827;28;45565;-64
2021/08/09 07:59:12;;;;;;;;;1.33;1.33;;;;;18.68;61.92;101361.63;5055619;28;45447;-64
2021/08/09 08:01:37;;;;;;;;;4.00;3.00;;;;;18.85;61.36;101363.47;5055835;28;45539;-63
2021/08/09 08:04:02;;;;;;;;;4.33;2.67;;;;;19.02;60.58;101363.63;5055126;28;45497;-63
2021/08/09 08:06:28;;;;;;;;;3.67;2.00;;;;;19.10;61.74;101367.19;5036614;28;45715;-64
2021/08/09 08:08:54;;;;;;;;;3.33;2.00;;;;;19.18;61.09;101361.09;5055169;28;45518;-64
2021/08/09 08:11:19;;;;;;;;;2.00;2.00;;;;;19.27;59.98;101373.47;5054750;28;45372;-63
2021/08/09 08:13:45;;;;;;;;;1.00;1.00;;;;;19.27;60.43;101372.66;5055814;28;45965;-63
2021/08/09 08:16:10;;;;;;;;;5.33;3.00;;;;;19.23;60.57;101372.13;5054472;28;45456;-63
2021/08/09 08:18:36;;;;;;;;;1.00;1.00;;;;;19.16;59.97;101373.72;5055220;28;45502;-63
2021/08/09 08:21:01;;;;;;;;;0.67;0.33;;;;;19.17;59.79;101372.72;5054514;28;45471;-64
2021/08/09 08:23:26;;;;;;;;;2.00;2.00;;;;;19.15;60.09;101374.72;5054684;28;45700;-65
2021/08/09 08:25:52;;;;;;;;;4.33;2.00;;;;;19.08;60.90;101374.53;5054113;28;45475;-63
2021/08/09 08:28:18;;;;;;;;;2.67;1.33;;;;;18.97;60.97;101366.78;5054200;28;45304;-63
2021/08/09 08:30:43;;;;;;;;;3.00;2.00;;;;;18.96;61.21;101373.91;5054823;28;45310;-64
2021/08/09 08:33:08;;;;;;;;;4.00;1.33;;;;;18.90;61.13;101374.53;5054928;28;46168;-64
2021/08/09 08:35:34;;;;;;;;;3.00;3.00;;;;;18.91;60.65;101370.84;5055357;28;45317;-64
2021/08/09 08:37:59;;;;;;;;;4.00;3.00;;;;;19.00;61.18;101377.09;5055831;28;45517;-63
2021/08/09 08:40:24;;;;;;;;;2.00;2.00;;;;;18.99;61.23;101374.59;5057783;28;45578;-64
2021/08/09 08:42:50;;;;;;;;;1.00;0.00;;;;;18.98;61.44;101372.91;5057452;28;46912;-64
2021/08/09 08:45:20;;;;;;;;;4.00;2.00;;;;;18.96;61.42;101368.56;5057474;28;45840;-63
2021/08/09 08:47:47;;;;;;;;;5.00;3.00;;;;;19.01;61.58;101370.78;5058602;28;45436;-63
2021/08/09 08:50:16;;;;;;;;;3.00;1.67;;;;;19.04;61.55;101377.63;5057455;28;45380;-63
2021/08/09 08:52:45;;;;;;;;;3.33;2.00;;;;;19.10;60.96;101379.69;5058646;28;45337;-64
2021/08/09 08:55:10;;;;;;;;;3.33;2.00;;;;;19.20;61.04;101383.09;5057488;28;45296;-63
2021/08/09 08:57:36;;;;;;;;;9.00;4.00;;;;;19.29;60.86;101384.81;5059468;28;45269;-64
2021/08/09 09:00:02;;;;;;;;;7.67;5.33;;;;;19.34;61.10;101389.66;5058583;28;45519;-64
2021/08/09 09:02:38;;;;;;;;;4.00;4.00;;;;;19.36;60.43;101387.69;5059495;28;46142;-63
2021/08/09 09:05:13;;;;;;;;;7.33;5.67;;;;;19.50;59.63;101396.97;5054173;28;45269;-64
2021/08/09 09:07:40;;;;;;;;;6.00;5.00;;;;;19.59;59.49;101398.69;5060142;27;45311;-64
2021/08/09 09:10:14;;;;;;;;;5.33;5.33;;;;;19.69;59.89;101406.56;5059106;28;45597;-64
2021/08/09 09:12:39;;;;;;;;;5.67;3.00;;;;;19.74;58.40;101406.91;5058070;28;46265;-63
2021/08/09 09:15:06;;;;;;;;;7.67;6.33;;;;;19.82;59.14;101392.00;5058607;28;48722;-64
2021/08/09 09:17:37;;;;;;;;;4.00;4.00;;;;;19.98;58.63;101401.91;5058260;28;45368;-63
2021/08/09 09:20:22;;;;;;;;;4.00;3.00;;;;;20.11;58.60;101410.31;5057245;28;45483;-64
2021/08/09 09:22:47;;;;;;;;;1.67;1.67;;;;;20.13;57.99;101407.50;5054865;28;46172;-63
2021/08/09 09:25:12;;;;;;;;;6.33;3.00;;;;;20.11;58.51;101413.81;5057492;28;45412;-62
2021/08/09 09:27:38;;;;;;;;;3.00;2.00;;;;;20.17;57.42;101416.84;5057953;28;45326;-63
2021/08/09 09:30:29;;;;;;;;;2.00;2.00;;;;;20.21;57.34;101419.03;5057495;28;45491;-62
2021/08/09 09:33:02;;;;;;;;;2.00;2.00;;;;;20.30;57.99;101421.72;5057775;28;47079;-62
2021/08/09 09:35:28;;;;;;;;;3.33;3.33;;;;;20.35;57.56;101419.41;5058310;28;45277;-64
2021/08/09 09:37:54;;;;;;;;;2.00;2.00;;;;;20.43;57.16;101411.41;5057559;28;45475;-63
2021/08/09 09:40:22;;;;;;;;;0.00;0.00;;;;;20.52;56.50;101425.63;5057860;28;45453;-62
2021/08/09 09:42:49;;;;;;;;;3.00;3.00;;;;;20.65;56.85;101411.81;5040025;28;46085;-63
2021/08/09 09:45:20;;;;;;;;;5.33;2.33;;;;;20.81;56.21;101416.38;5057630;28;45455;-63
2021/08/09 09:48:07;;;;;;;;;2.00;2.00;;;;;20.94;55.94;101416.75;5058506;28;45570;-62
2021/08/09 09:50:41;;;;;;;;;1.00;1.00;;;;;21.02;55.23;101406.06;5057826;28;45270;-61
2021/08/09 09:53:18;;;;;;;;;0.67;0.67;;;;;21.04;54.63;101419.22;5057143;28;47243;-62
2021/08/09 09:55:48;;;;;;;;;3.00;2.67;;;;;21.00;54.92;101423.25;5058760;28;45392;-63
2021/08/09 09:58:14;;;;;;;;;3.33;3.00;;;;;21.01;54.74;101417.72;5057361;28;45446;-64
2021/08/09 10:00:41;;;;;;;;;2.33;1.33;;;;;21.05;55.34;101420.91;5057398;28;45417;-64
2021/08/09 10:03:06;;;;;;;;;2.00;2.00;;;;;21.09;55.21;101424.91;5057391;28;46153;-62
2021/08/09 10:05:34;;;;;;;;;2.00;2.00;;;;;21.08;55.15;101421.41;5057039;28;45211;-63
2021/08/09 10:08:03;;;;;;;;;3.00;3.00;;;;;21.04;55.39;101414.75;5056651;28;45257;-63
2021/08/09 10:10:29;;;;;;;;;3.00;2.67;;;;;21.06;54.47;101418.06;5056720;28;45470;-63
2021/08/09 10:12:54;;;;;;;;;8.00;3.00;;;;;21.15;54.08;101416.25;5056769;28;46190;-64
2021/08/09 10:15:20;;;;;;;;;2.00;2.00;;;;;21.20;54.59;101421.91;5057040;28;45565;-64
2021/08/09 10:17:52;;;;;;;;;4.00;3.00;;;;;21.25;54.58;101422.25;5057356;28;45739;-62
2021/08/09 10:20:19;;;;;;;;;4.33;4.33;;;;;21.18;54.23;101423.91;5055962;28;45396;-62
2021/08/09 10:22:59;;;;;;;;;20.33;15.67;;;;;21.15;54.77;101434.94;5055728;28;46208;-63
2021/08/09 10:25:44;;;;;;;;;9.00;7.00;;;;;21.04;55.02;101425.44;5055790;28;45452;-63
2021/08/09 10:28:10;;;;;;;;;6.00;5.00;;;;;21.01;54.82;101422.25;5057095;28;45533;-63
2021/08/09 10:30:36;;;;;;;;;2.67;2.00;;;;;21.04;54.49;101422.75;5056607;28;45306;-63
2021/08/09 10:33:07;;;;;;;;;3.00;3.00;;;;;21.09;54.78;101428.44;5056697;28;46147;-63
2021/08/09 10:35:33;;;;;;;;;5.33;3.00;;;;;21.13;54.89;101412.88;5056601;28;45542;-62
2021/08/09 10:38:18;;;;;;;;;5.33;3.33;;;;;21.15;54.25;101413.56;5055769;28;45288;-63
2021/08/09 10:40:45;;;;;;;;;5.33;3.00;;;;;21.18;54.29;101421.22;5055117;28;45265;-63
2021/08/09 10:43:11;;;;;;;;;10.67;9.67;;;;;21.15;54.11;101420.72;5056469;28;47116;-63
2021/08/09 10:45:40;;;;;;;;;8.00;6.67;;;;;21.14;53.97;101422.56;5038290;28;45353;-63
2021/08/09 10:48:09;;;;;;;;;3.00;3.00;;;;;21.18;53.84;101421.22;5056813;28;45531;-64
2021/08/09 10:50:39;;;;;;;;;5.00;3.33;;;;;21.22;53.53;101409.19;5058464;27;45462;-63
2021/08/09 10:53:24;;;;;;;;;2.33;2.00;;;;;21.25;52.97;101416.91;5050293;28;45438;-63
2021/08/09 10:55:50;;;;;;;;;7.00;5.67;;;;;21.27;53.24;101411.38;5055614;28;45394;-63
2021/08/09 10:58:43;;;;;;;;;3.67;3.00;;;;;21.28;53.39;101410.38;5056399;28;45308;-62
2021/08/09 11:01:16;;;;;;;;;6.00;3.00;;;;;21.26;53.41;101415.91;5055630;28;45572;-62
2021/08/09 11:04:00;;;;;;;;;3.00;3.00;;;;;21.24;53.77;101425.91;5054087;28;45705;-62
2021/08/09 11:06:52;;;;;;;;;4.00;2.00;;;;;21.24;53.84;101414.41;5055946;28;45509;-63
2021/08/09 11:09:32;;;;;;;;;3.00;3.00;;;;;21.30;53.41;101419.06;5056384;28;45447;-63
2021/08/09 11:12:18;;;;;;;;;2.67;2.67;;;;;21.38;53.84;101420.88;5054971;27;45514;-63
2021/08/09 11:15:10;;;;;;;;;3.00;3.00;;;;;21.40;53.18;101418.91;5056421;28;45298;-63
2021/08/09 11:17:38;;;;;;;;;4.00;2.00;;;;;21.39;52.52;101412.72;5056537;28;45467;-62
2021/08/09 11:20:14;;;;;;;;;1.00;0.33;;;;;21.41;52.96;101415.22;5055634;28;45499;-63
2021/08/09 11:22:41;;;;;;;;;2.00;2.00;;;;;21.42;52.62;101406.22;5056327;28;45361;-63
2021/08/09 11:25:42;;;;;;;;;2.00;2.00;;;;;21.42;52.90;101412.38;5057127;28;45254;-62
2021/08/09 11:28:16;;;;;;;;;2.00;2.00;;;;;21.45;52.90;101394.34;5057180;28;45465;-63